Terminal Aerodrome Forecast
Issued by NWS Duluth, MN

Home | Current Version | Previous Version | Text Only | Print | Product List | Glossary On
Versions: 1 2 3 4 5 6 7 8 9 10 11 12 13 14 15 16 17 18 19 20 21 22 23 24 25 26 27 28
000
FTUS43 KDLH 232038 AAC
TAFDLH
TAF AMD
KDLH 232038Z 2321/2418 23008KT P6SM VCSH SCT030 BKN100
      TEMPO 2321/2322 -SHRA BKN030 BKN100
     FM232200 31005KT P6SM SCT040 BKN100
     FM240000 03005KT P6SM -SHRA VCTS BKN040CB OVC100
     FM240300 08005KT P6SM -SHRA BKN030 OVC040
     FM240700 09005KT 4SM BR SCT004 BKN030 WS020/20030KT
     FM241400 15007KT P6SM SCT250=

USA.gov is the U.S. government's official web portal to all federal, state and local government web resources and services.